Home > Products > Valid Products > TAF

000
FTUS43 KAPX 171700
TAFAPN
TAF
KAPN 171740Z 1718/1818 30011KT P6SM BKN045 BKN080
     FM180100 01007KT P6SM BKN018 OVC060
     FM181300 06010KT P6SM BKN025=



000
FTUS43 KAPX 171700
TAFTVC
TAF
KTVC 171740Z 1718/1818 27011KT P6SM SCT035 SCT090
     FM172300 30008KT P6SM BKN080
     FM180200 03007KT P6SM BKN025 OVC040
     FM181500 06006KT P6SM SCT025=



000
FTUS43 KAPX 171700
TAFPLN
TAF
KPLN 171740Z 1718/1818 24010G18KT P6SM BKN080
     FM172000 27010KT P6SM BKN100
     FM172300 35008KT P6SM SCT019 OVC060
     FM180300 02008KT P6SM BKN021 OVC060
     FM181600 08008KT P6SM BKN030=



000
FTUS43 KAPX 171100
TAFTVC
TAF
KTVC 171120Z 1712/1812 00000KT P6SM SKC
     FM171300 23007KT P6SM SCT120
     FM171600 26011KT P6SM SCT100
     FM172300 30008KT P6SM BKN060
     FM180200 01007KT P6SM SCT025 OVC060=



000
FTUS43 KAPX 171100
TAFPLN
TAF
KPLN 171120Z 1712/1812 00000KT P6SM SCT110
     FM171300 23006KT P6SM BKN100
     FM171500 24010G18KT P6SM BKN110
     FM172000 27010KT P6SM BKN100
     FM172300 35010KT P6SM OVC050
     FM180200 02008KT P6SM BKN025=



000
FTUS43 KAPX 171100
TAFAPN
TAF
KAPN 171120Z 1712/1812 23005KT P6SM BKN120
     FM171500 24011KT P6SM BKN110
     FM172000 27009KT P6SM BKN110
     FM180100 29005KT P6SM OVC090
     FM180400 35006KT P6SM BKN022=



000
FTUS43 KAPX 170900 AAA
TAFTVC
TAF AMD
KTVC 170949Z 1710/1806 00000KT P6SM SKC
     FM171300 23007KT P6SM SCT120
     FM171600 26011KT P6SM SCT100
     FM172300 30008KT P6SM BKN060
     FM180200 01007KT P6SM SCT025 OVC060=



000
FTUS43 KAPX 170900 AAA
TAFPLN
TAF AMD
KPLN 170946Z 1710/1806 00000KT P6SM SCT110
     FM171300 23006KT P6SM BKN100
     FM171500 24010G18KT P6SM BKN110
     FM172000 27010KT P6SM BKN100
     FM172300 35010KT P6SM OVC050
     FM180200 02008KT P6SM BKN025=



000
FTUS43 KAPX 170900 AAA
TAFAPN
TAF AMD
KAPN 170942Z 1710/1806 23005KT P6SM BKN120
     FM171500 24011KT P6SM BKN110
     FM172000 27009KT P6SM BKN110
     FM180100 29005KT P6SM OVC090
     FM180400 35006KT P6SM BKN022=



000
FTUS43 KAPX 170500
TAFPLN
TAF
KPLN 170520Z 1706/1806 24006KT P6SM BKN080
     FM171400 25011G19KT P6SM BKN100
     FM172100 31009KT P6SM BKN100
     FM180000 35007KT P6SM SKC=



000
FTUS43 KAPX 170500
TAFTVC
TAF
KTVC 170520Z 1706/1806 22006KT P6SM FEW090
     FM171400 25011G16KT P6SM BKN100
     FM172100 31009KT P6SM BKN250
     FM180000 34007KT P6SM SKC=



000
FTUS43 KAPX 170500
TAFAPN
TAF
KAPN 170520Z 1706/1806 23004KT P6SM SCT070
     FM171500 27010G18KT P6SM BKN110
     FM172100 31008KT P6SM SCT250
     FM180300 36006KT P6SM SCT250=



000
FTUS43 KAPX 162300
TAFPLN
TAF
KPLN 162326Z 1700/1724 24005KT P6SM FEW220
     FM170400 24006KT P6SM BKN100
     FM171400 25011G19KT P6SM BKN100
     FM172100 31009KT P6SM BKN100=



000
FTUS43 KAPX 162300
TAFTVC
TAF
KTVC 162326Z 1700/1724 23004KT P6SM SKC
     FM170600 22006KT P6SM SCT090
     FM171400 25011G16KT P6SM BKN100
     FM172100 31009KT P6SM BKN250=



000
FTUS43 KAPX 162300
TAFAPN
TAF
KAPN 162326Z 1700/1724 23003KT P6SM SKC
     FM170600 23004KT P6SM BKN090
     FM171500 27010G18KT P6SM BKN110
     FM172100 31008KT P6SM SCT250=



000
FTUS43 KAPX 161700
TAFPLN
TAF
KPLN 161720Z 1618/1718 25009G15KT P6SM FEW040
     FM170000 24005KT P6SM FEW220
     FM170400 24006KT P6SM BKN100
     FM171400 25011G19KT P6SM BKN100=



000
FTUS43 KAPX 161700
TAFAPN
TAF
KAPN 161720Z 1618/1718 25010KT P6SM SCT040
      TEMPO 1618/1620 BKN040
     FM170000 23003KT P6SM SKC
     FM170600 23004KT P6SM BKN090
     FM171500 27010G18KT P6SM BKN110=



000
FTUS43 KAPX 161700
TAFTVC
TAF
KTVC 161720Z 1618/1718 27011KT P6SM FEW050
     FM170000 23004KT P6SM SKC
     FM170600 22006KT P6SM SCT090
     FM171400 25011G16KT P6SM BKN100=



000
FTUS43 KAPX 161500 AAA
TAFAPN
TAF AMD
KAPN 161557Z 1616/1712 24010KT P6SM SCT045
      TEMPO 1616/1620 BKN040
     FM170100 23003KT P6SM FEW080 BKN100=



000
FTUS43 KAPX 161200 AAA
TAFPLN
TAF AMD
KPLN 161201Z 1612/1712 00000KT P6SM MIFG SCT040
      TEMPO 1612/1613 3/4SM BR VV001
     FM161600 26009G15KT P6SM FEW040
     FM170100 24003KT P6SM FEW080 BKN100=



000
FTUS43 KAPX 161100
TAFPLN
TAF
KPLN 161120Z 1612/1712 00000KT P6SM SCT040
     FM161600 26009G15KT P6SM FEW040
     FM170100 24003KT P6SM FEW080 BKN100=



000
FTUS43 KAPX 161100
TAFAPN
TAF
KAPN 161120Z 1612/1712 VRB03KT P6SM SCT060
     FM161600 26009KT P6SM SCT050
     FM170100 23003KT P6SM FEW080 BKN100=



000
FTUS43 KAPX 161100
TAFTVC
TAF
KTVC 161120Z 1612/1712 00000KT P6SM SCT040
     FM161500 26009KT P6SM FEW040
     FM170100 23003KT P6SM FEW080=



000
FTUS43 KAPX 161000 AAC
TAFPLN
TAF AMD
KPLN 161055Z 1611/1706 00000KT 1 1/2SM BR SCT001
     FM161130 00000KT P6SM SCT040
     FM161600 26009G15KT P6SM FEW040
     FM170100 21003KT P6SM FEW080 BKN100=



000
FTUS43 KAPX 161000 AAB
TAFPLN
TAF AMD
KPLN 161004Z 1610/1706 00000KT P6SM FEW045 BKN060
     FM161100 00000KT P6SM SCT040
     FM161600 26009G15KT P6SM FEW040
     FM170100 21003KT P6SM FEW080 BKN100=



000
FTUS43 KAPX 160900 AAA
TAFPLN
TAF AMD
KPLN 160930Z 1610/1706 00000KT 5SM BR SCT060
      TEMPO 1610/1611 1SM BR
     FM161100 00000KT P6SM FEW035
     FM161600 26009G15KT P6SM FEW040
     FM170100 21003KT P6SM FEW080 BKN100=



000
FTUS43 KAPX 160500
TAFPLN
TAF
KPLN 160538Z 1606/1706 00000KT P6SM SCT025 BKN050
      TEMPO 1606/1610 BKN025
     FM161000 00000KT P6SM FEW035
     FM161600 26009G15KT P6SM FEW040
     FM170100 21003KT P6SM FEW080 BKN100=



000
FTUS43 KAPX 160500
TAFTVC
TAF
KTVC 160538Z 1606/1706 00000KT P6SM FEW025 BKN060
     FM161000 00000KT P6SM SCT040
     FM161500 26009KT P6SM FEW040
     FM170100 21003KT P6SM FEW080=



000
FTUS43 KAPX 160500
TAFAPN
TAF
KAPN 160538Z 1606/1706 VRB03KT P6SM SKC
     FM161600 26009KT P6SM SCT050
     FM170100 21003KT P6SM FEW080 BKN100=



000
FTUS43 KAPX 152300
TAFAPN
TAF
KAPN 152320Z 1600/1624 VRB03KT P6SM SCT100
     FM160700 28004KT P6SM SCT040
     FM161700 26009KT P6SM FEW050 SCT150=



000
FTUS43 KAPX 152300
TAFPLN
TAF
KPLN 152320Z 1600/1624 30005KT P6SM SCT050
     FM160200 00000KT P6SM BKN040
     FM161000 00000KT P6SM SCT035
     FM161600 26009G15KT P6SM SCT150=



000
FTUS43 KAPX 152300
TAFTVC
TAF
KTVC 152320Z 1600/1624 VRB03KT P6SM SCT100
     FM160400 00000KT P6SM SCT025 BKN045
     FM161100 00000KT P6SM SCT025
     FM161400 26009KT P6SM SCT150=



000
FTUS43 KAPX 151700
TAFTVC
TAF
KTVC 151736Z 1518/1618 25004KT P6SM SCT035 OVC090
      TEMPO 1518/1520 BKN025 OVC090
     FM152000 29005KT P6SM OVC090
     FM160000 29003KT P6SM SCT100
     FM160500 00000KT P6SM BKN045
     FM160800 00000KT P6SM BKN020
     FM161100 00000KT P6SM SCT022=



000
FTUS43 KAPX 151700
TAFAPN
TAF
KAPN 151736Z 1518/1618 30005KT P6SM OVC100
     FM160100 00000KT P6SM SCT090
     FM161000 27004KT P6SM SCT040=



000
FTUS43 KAPX 151700
TAFPLN
TAF
KPLN 151736Z 1518/1618 30010KT P6SM SKC
     FM160200 00000KT P6SM BKN040
     FM161000 00000KT P6SM SCT035=



000
FTUS43 KAPX 151100 CCA
TAFPLN
TAF COR
KPLN 151157Z 1512/1612 30005KT P6SM SCT090 BKN120
      TEMPO 1512/1513 00000KT 2SM BR
     FM151500 30007KT P6SM BKN040
     FM160000 29003KT P6SM SCT040=



000
FTUS43 KAPX 151100
TAFAPN
TAF
KAPN 151120Z 1512/1612 21007KT P6SM SCT050 BKN090 OVC150
     FM151400 26005KT P6SM BKN040 OVC120
     FM151800 32005KT P6SM -RA OVC035
     FM152200 32004KT P6SM BKN035 OVC100
     FM160200 31004KT P6SM SCT040=



000
FTUS43 KAPX 151100
TAFPLN
TAF
KPLN 151120Z 1512/1612 30005KT P6SM SCT090 BKN120
     FM151500 30007KT P6SM BKN040
     FM160000 29003KT P6SM SCT040=



000
FTUS43 KAPX 151100
TAFTVC
TAF
KTVC 151120Z 1512/1612 23004KT P6SM -RA BKN040 OVC120
     FM151800 31006KT P6SM -RA OVC040
     FM152100 30004KT P6SM BKN035
     FM160200 00000KT P6SM SCT035=



000
FTUS43 KAPX 151100 AAC
TAFPLN
TAF AMD
KPLN 151101Z 1511/1606 00000KT 3SM BR SCT001
     FM151200 30005KT P6SM SCT090 BKN120
     FM151800 30006KT P6SM BKN040
     FM160000 30004KT P6SM SCT040=



000
FTUS43 KAPX 151000 AAB
TAFPLN
TAF AMD
KPLN 151034Z 1511/1606 00000KT 1/2SM FG VV001
     FM151200 30005KT P6SM SCT090 BKN120
     FM151800 30006KT P6SM BKN040
     FM160000 30004KT P6SM SCT040=



000
FTUS43 KAPX 150700 AAA
TAFAPN
TAF AMD
KAPN 150727Z 1507/1606 21007KT P6SM SCT050 BKN090 OVC150
     FM151400 26005KT P6SM VCSH BKN040 OVC120
     FM151800 32005KT P6SM -RA OVC035
     FM152200 32004KT P6SM BKN035 OVC100
     FM160200 31004KT P6SM SCT040=



000
FTUS43 KAPX 150700 AAA
TAFPLN
TAF AMD
KPLN 150723Z 1507/1606 22008G17KT P6SM -SHRA BKN050 BKN100
     FM150800 24005KT P6SM BKN090 OVC150
     FM151200 30005KT P6SM SCT090 BKN120
     FM151800 30006KT P6SM BKN040
     FM160000 30004KT P6SM SCT040=



000
FTUS43 KAPX 150700 AAA
TAFTVC
TAF AMD
KTVC 150718Z 1507/1606 VRB03KT P6SM BKN040 BKN090
     FM151100 23004KT P6SM -RA BKN040 OVC120
     FM151800 31006KT P6SM -RA OVC040
     FM152100 30004KT P6SM BKN035
     FM160200 00000KT P6SM SCT035=



000
FTUS43 KAPX 150600 RRA
TAFAPN
TAF
KAPN 150602Z 1506/1606 20004KT P6SM SCT060 BKN120
     FM151200 24004KT P6SM VCSH OVC035
     FM151800 32005KT 6SM -RA OVC025
     FM160200 31004KT P6SM SCT040=



000
FTUS43 KAPX 150600 RRA
TAFPLN
TAF
KPLN 150602Z 1506/1606 19005KT P6SM VCSH BKN050 BKN100
     FM151200 31006KT P6SM OVC030
     FM160200 30004KT P6SM SCT040=



000
FTUS43 KAPX 150600 RRA
TAFTVC
TAF
KTVC 150602Z 1506/1606 22005KT P6SM VCSH BKN050 BKN100
     FM151000 24005KT 6SM -SHRA OVC035
     FM151800 31006KT 6SM -SHRA OVC025
     FM160000 30004KT P6SM BKN035=



000
FTUS43 KAPX 142300
TAFAPN
TAF
KAPN 142320Z 1500/1524 20004KT P6SM BKN060 BKN120
     FM151200 24005KT P6SM VCSH OVC030
     FM151800 32006KT 6SM -RA OVC025=



000
FTUS43 KAPX 142300
TAFTVC
TAF
KTVC 142320Z 1500/1524 22005KT P6SM VCSH BKN050 BKN200
     FM151000 24005KT 6SM -SHRA OVC030
     FM151800 31007KT 6SM -SHRA OVC025=



000
FTUS43 KAPX 142300
TAFPLN
TAF
KPLN 142320Z 1500/1524 21005KT P6SM VCSH BKN040 BKN080
     FM151200 27005KT P6SM OVC030
     FM151800 31008KT P6SM OVC025=



    US Dept of Commerce
    National Oceanic and Atmospheric Administration
    National Weather Service
    1325 East West Highway
    Silver Spring, MD 20910
    Page Author: NWS Internet Services Team
Disclaimer
Information Quality
Credits
Glossary
Privacy Policy
Freedom of Information Act (FOIA)
About Us
Career Opportunities